sensor_id;sensor_type;location;lat;lon;timestamp;temperature;humidity
10294;DHT22;5192;50.328;7.610;2023-02-14T00:01:16;1.20;66.00
10294;DHT22;5192;50.328;7.610;2023-02-14T00:03:43;1.20;66.40
10294;DHT22;5192;50.328;7.610;2023-02-14T00:06:12;1.10;67.10
10294;DHT22;5192;50.328;7.610;2023-02-14T00:08:39;1.10;67.40
10294;DHT22;5192;50.328;7.610;2023-02-14T00:11:08;1.10;67.60
10294;DHT22;5192;50.328;7.610;2023-02-14T00:13:35;1.10;67.80
10294;DHT22;5192;50.328;7.610;2023-02-14T00:16:03;1.10;68.20
10294;DHT22;5192;50.328;7.610;2023-02-14T00:18:28;1.10;68.60
10294;DHT22;5192;50.328;7.610;2023-02-14T00:21:15;1.10;69.40
10294;DHT22;5192;50.328;7.610;2023-02-14T00:23:42;1.10;69.60
10294;DHT22;5192;50.328;7.610;2023-02-14T00:26:17;1.10;69.70
10294;DHT22;5192;50.328;7.610;2023-02-14T00:28:44;1.00;69.50
10294;DHT22;5192;50.328;7.610;2023-02-14T00:31:11;1.00;69.20
10294;DHT22;5192;50.328;7.610;2023-02-14T00:33:38;1.00;69.20
10294;DHT22;5192;50.328;7.610;2023-02-14T00:36:08;0.90;69.30
10294;DHT22;5192;50.328;7.610;2023-02-14T00:38:36;0.80;69.10
10294;DHT22;5192;50.328;7.610;2023-02-14T00:41:03;0.80;69.00
10294;DHT22;5192;50.328;7.610;2023-02-14T00:43:30;0.80;69.10
10294;DHT22;5192;50.328;7.610;2023-02-14T00:45:58;0.80;69.40
10294;DHT22;5192;50.328;7.610;2023-02-14T00:48:24;0.70;69.60
10294;DHT22;5192;50.328;7.610;2023-02-14T00:50:52;0.70;69.70
10294;DHT22;5192;50.328;7.610;2023-02-14T00:53:19;0.70;69.70
10294;DHT22;5192;50.328;7.610;2023-02-14T00:55:46;0.60;69.70
10294;DHT22;5192;50.328;7.610;2023-02-14T00:58:13;0.60;70.00
10294;DHT22;5192;50.328;7.610;2023-02-14T01:00:40;0.60;70.10
10294;DHT22;5192;50.328;7.610;2023-02-14T01:03:06;0.60;70.60
10294;DHT22;5192;50.328;7.610;2023-02-14T01:05:33;0.60;70.80
10294;DHT22;5192;50.328;7.610;2023-02-14T01:08:00;0.60;71.00
10294;DHT22;5192;50.328;7.610;2023-02-14T01:10:29;0.60;70.90
10294;DHT22;5192;50.328;7.610;2023-02-14T01:12:56;0.50;70.80
10294;DHT22;5192;50.328;7.610;2023-02-14T01:15:21;0.50;71.20
10294;DHT22;5192;50.328;7.610;2023-02-14T01:17:48;0.50;71.80
10294;DHT22;5192;50.328;7.610;2023-02-14T01:20:15;0.50;71.90
10294;DHT22;5192;50.328;7.610;2023-02-14T01:22:42;0.50;71.80
10294;DHT22;5192;50.328;7.610;2023-02-14T01:25:07;0.50;72.00
10294;DHT22;5192;50.328;7.610;2023-02-14T01:27:34;0.50;72.00
10294;DHT22;5192;50.328;7.610;2023-02-14T01:30:02;0.40;71.80
10294;DHT22;5192;50.328;7.610;2023-02-14T01:32:33;0.40;71.80
10294;DHT22;5192;50.328;7.610;2023-02-14T01:35:00;0.40;71.70
10294;DHT22;5192;50.328;7.610;2023-02-14T01:37:32;0.30;71.60
10294;DHT22;5192;50.328;7.610;2023-02-14T01:39:58;0.30;71.50
10294;DHT22;5192;50.328;7.610;2023-02-14T01:42:25;0.30;72.00
10294;DHT22;5192;50.328;7.610;2023-02-14T01:45:22;0.30;72.00
10294;DHT22;5192;50.328;7.610;2023-02-14T01:47:55;0.30;71.90
10294;DHT22;5192;50.328;7.610;2023-02-14T01:50:35;0.20;71.80
10294;DHT22;5192;50.328;7.610;2023-02-14T01:53:18;0.20;72.00
10294;DHT22;5192;50.328;7.610;2023-02-14T01:55:54;0.20;71.90
10294;DHT22;5192;50.328;7.610;2023-02-14T01:58:26;0.10;72.00
10294;DHT22;5192;50.328;7.610;2023-02-14T02:00:54;0.10;71.90
10294;DHT22;5192;50.328;7.610;2023-02-14T02:03:52;0.10;71.90
10294;DHT22;5192;50.328;7.610;2023-02-14T02:06:32;0.10;71.90
10294;DHT22;5192;50.328;7.610;2023-02-14T02:09:15;0.00;71.70
10294;DHT22;5192;50.328;7.610;2023-02-14T02:11:47;0.00;71.60
10294;DHT22;5192;50.328;7.610;2023-02-14T02:14:17;-0.10;71.50
10294;DHT22;5192;50.328;7.610;2023-02-14T02:17:14;0.00;72.00
10294;DHT22;5192;50.328;7.610;2023-02-14T02:29:12;-0.10;72.40
10294;DHT22;5192;50.328;7.610;2023-02-14T02:43:45;-0.20;72.50
10294;DHT22;5192;50.328;7.610;2023-02-14T02:46:46;-0.20;72.40
10294;DHT22;5192;50.328;7.610;2023-02-14T02:55:54;-0.30;72.30
10294;DHT22;5192;50.328;7.610;2023-02-14T03:02:04;-0.40;72.30
10294;DHT22;5192;50.328;7.610;2023-02-14T03:04:33;-0.40;72.10
10294;DHT22;5192;50.328;7.610;2023-02-14T03:07:33;-0.50;72.10
10294;DHT22;5192;50.328;7.610;2023-02-14T03:10:21;-0.50;72.10
10294;DHT22;5192;50.328;7.610;2023-02-14T03:13:07;-0.50;72.80
10294;DHT22;5192;50.328;7.610;2023-02-14T03:21:46;-0.60;72.30
10294;DHT22;5192;50.328;7.610;2023-02-14T03:27:40;-0.60;72.30
10294;DHT22;5192;50.328;7.610;2023-02-14T03:30:40;-0.60;72.50
10294;DHT22;5192;50.328;7.610;2023-02-14T03:33:27;-0.60;72.60
10294;DHT22;5192;50.328;7.610;2023-02-14T03:36:20;-0.70;72.70
10294;DHT22;5192;50.328;7.610;2023-02-14T03:39:01;-0.60;72.90
10294;DHT22;5192;50.328;7.610;2023-02-14T03:41:35;-0.60;72.90
10294;DHT22;5192;50.328;7.610;2023-02-14T03:44:06;-0.70;72.80
10294;DHT22;5192;50.328;7.610;2023-02-14T03:46:50;-0.70;72.70
10294;DHT22;5192;50.328;7.610;2023-02-14T03:49:22;-0.70;72.70
10294;DHT22;5192;50.328;7.610;2023-02-14T03:51:50;-0.80;72.60
10294;DHT22;5192;50.328;7.610;2023-02-14T03:54:20;-0.80;72.50
10294;DHT22;5192;50.328;7.610;2023-02-14T03:57:03;-0.80;72.40
10294;DHT22;5192;50.328;7.610;2023-02-14T03:59:35;-0.80;72.40
10294;DHT22;5192;50.328;7.610;2023-02-14T04:02:15;-0.80;72.70
10294;DHT22;5192;50.328;7.610;2023-02-14T04:04:53;-0.80;73.00
10294;DHT22;5192;50.328;7.610;2023-02-14T04:07:23;-0.70;73.30
10294;DHT22;5192;50.328;7.610;2023-02-14T04:09:50;-0.70;73.60
10294;DHT22;5192;50.328;7.610;2023-02-14T04:12:18;-0.60;73.90
10294;DHT22;5192;50.328;7.610;2023-02-14T04:14:45;-0.60;73.90
10294;DHT22;5192;50.328;7.610;2023-02-14T04:17:12;-0.70;73.90
10294;DHT22;5192;50.328;7.610;2023-02-14T04:19:58;-0.70;74.00
10294;DHT22;5192;50.328;7.610;2023-02-14T04:22:29;-0.70;74.10
10294;DHT22;5192;50.328;7.610;2023-02-14T04:24:55;-0.60;74.20
10294;DHT22;5192;50.328;7.610;2023-02-14T04:27:22;-0.60;74.20
10294;DHT22;5192;50.328;7.610;2023-02-14T04:29:49;-0.60;74.20
10294;DHT22;5192;50.328;7.610;2023-02-14T04:32:20;-0.60;74.30
10294;DHT22;5192;50.328;7.610;2023-02-14T04:34:47;-0.60;74.60
10294;DHT22;5192;50.328;7.610;2023-02-14T04:37:16;-0.50;74.80
10294;DHT22;5192;50.328;7.610;2023-02-14T04:39:43;-0.40;75.00
10294;DHT22;5192;50.328;7.610;2023-02-14T04:42:10;-0.40;75.00
10294;DHT22;5192;50.328;7.610;2023-02-14T04:44:36;-0.40;75.00
10294;DHT22;5192;50.328;7.610;2023-02-14T04:47:08;-0.50;75.00
10294;DHT22;5192;50.328;7.610;2023-02-14T04:49:36;-0.50;75.10
10294;DHT22;5192;50.328;7.610;2023-02-14T04:52:03;-0.40;75.20
10294;DHT22;5192;50.328;7.610;2023-02-14T04:54:31;-0.40;75.30
10294;DHT22;5192;50.328;7.610;2023-02-14T04:56:59;-0.40;75.40
10294;DHT22;5192;50.328;7.610;2023-02-14T04:59:26;-0.30;75.50
10294;DHT22;5192;50.328;7.610;2023-02-14T05:01:53;-0.30;75.60
10294;DHT22;5192;50.328;7.610;2023-02-14T05:04:20;-0.30;75.60
10294;DHT22;5192;50.328;7.610;2023-02-14T05:06:47;-0.40;75.50
10294;DHT22;5192;50.328;7.610;2023-02-14T05:09:13;-0.40;75.40
10294;DHT22;5192;50.328;7.610;2023-02-14T05:11:40;-0.40;75.30
10294;DHT22;5192;50.328;7.610;2023-02-14T05:14:07;-0.40;75.30
10294;DHT22;5192;50.328;7.610;2023-02-14T05:16:34;-0.50;75.30
10294;DHT22;5192;50.328;7.610;2023-02-14T05:19:00;-0.50;75.20
10294;DHT22;5192;50.328;7.610;2023-02-14T05:21:28;-0.50;75.00
10294;DHT22;5192;50.328;7.610;2023-02-14T05:24:00;-0.60;74.90
10294;DHT22;5192;50.328;7.610;2023-02-14T05:26:28;-0.60;75.00
10294;DHT22;5192;50.328;7.610;2023-02-14T05:28:55;-0.40;75.10
10294;DHT22;5192;50.328;7.610;2023-02-14T05:31:23;-0.60;75.00
10294;DHT22;5192;50.328;7.610;2023-02-14T05:33:50;-0.60;75.00
10294;DHT22;5192;50.328;7.610;2023-02-14T05:36:18;-0.60;75.00
10294;DHT22;5192;50.328;7.610;2023-02-14T05:38:45;-0.60;75.00
10294;DHT22;5192;50.328;7.610;2023-02-14T05:41:13;-0.60;75.00
10294;DHT22;5192;50.328;7.610;2023-02-14T05:43:41;-0.60;74.90
10294;DHT22;5192;50.328;7.610;2023-02-14T05:46:09;-0.60;74.90
10294;DHT22;5192;50.328;7.610;2023-02-14T05:48:36;-0.60;74.90
10294;DHT22;5192;50.328;7.610;2023-02-14T05:51:09;-0.70;74.80
10294;DHT22;5192;50.328;7.610;2023-02-14T05:53:36;-0.70;74.60
10294;DHT22;5192;50.328;7.610;2023-02-14T05:56:04;-0.80;74.40
10294;DHT22;5192;50.328;7.610;2023-02-14T05:58:33;-0.80;74.30
10294;DHT22;5192;50.328;7.610;2023-02-14T06:01:00;-0.90;74.20
10294;DHT22;5192;50.328;7.610;2023-02-14T06:03:26;-0.90;74.20
10294;DHT22;5192;50.328;7.610;2023-02-14T06:05:54;-0.90;74.00
10294;DHT22;5192;50.328;7.610;2023-02-14T06:08:21;-1.00;73.90
10294;DHT22;5192;50.328;7.610;2023-02-14T06:10:51;-1.00;73.90
10294;DHT22;5192;50.328;7.610;2023-02-14T06:13:16;-1.00;73.80
10294;DHT22;5192;50.328;7.610;2023-02-14T06:15:45;-1.00;73.80
10294;DHT22;5192;50.328;7.610;2023-02-14T06:18:13;-1.00;74.00
10294;DHT22;5192;50.328;7.610;2023-02-14T06:20:41;-0.90;74.20
10294;DHT22;5192;50.328;7.610;2023-02-14T06:23:09;-1.00;74.00
10294;DHT22;5192;50.328;7.610;2023-02-14T06:25:37;-1.00;74.00
10294;DHT22;5192;50.328;7.610;2023-02-14T06:28:05;-1.00;74.10
10294;DHT22;5192;50.328;7.610;2023-02-14T06:30:33;-1.00;74.20
10294;DHT22;5192;50.328;7.610;2023-02-14T06:32:59;-0.70;74.90
10294;DHT22;5192;50.328;7.610;2023-02-14T06:35:25;-0.60;75.30
10294;DHT22;5192;50.328;7.610;2023-02-14T06:37:52;-0.50;75.60
10294;DHT22;5192;50.328;7.610;2023-02-14T06:40:19;-0.40;75.80
10294;DHT22;5192;50.328;7.610;2023-02-14T06:42:44;-0.30;76.00
10294;DHT22;5192;50.328;7.610;2023-02-14T06:45:12;-0.10;76.60
10294;DHT22;5192;50.328;7.610;2023-02-14T06:47:38;0.00;76.60
10294;DHT22;5192;50.328;7.610;2023-02-14T06:50:06;0.00;77.20
10294;DHT22;5192;50.328;7.610;2023-02-14T06:52:37;0.00;76.70
10294;DHT22;5192;50.328;7.610;2023-02-14T06:55:05;0.10;77.00
10294;DHT22;5192;50.328;7.610;2023-02-14T06:57:36;0.00;77.00
10294;DHT22;5192;50.328;7.610;2023-02-14T07:00:05;0.00;77.00
10294;DHT22;5192;50.328;7.610;2023-02-14T07:02:39;0.10;77.30
10294;DHT22;5192;50.328;7.610;2023-02-14T07:05:08;0.10;77.30
10294;DHT22;5192;50.328;7.610;2023-02-14T07:07:35;0.20;77.50
10294;DHT22;5192;50.328;7.610;2023-02-14T07:10:03;0.20;77.50
10294;DHT22;5192;50.328;7.610;2023-02-14T07:12:32;0.20;77.60
10294;DHT22;5192;50.328;7.610;2023-02-14T07:14:59;0.40;77.90
10294;DHT22;5192;50.328;7.610;2023-02-14T07:17:26;0.50;78.20
10294;DHT22;5192;50.328;7.610;2023-02-14T07:19:52;0.60;78.40
10294;DHT22;5192;50.328;7.610;2023-02-14T07:22:19;0.70;78.80
10294;DHT22;5192;50.328;7.610;2023-02-14T07:24:47;0.80;79.00
10294;DHT22;5192;50.328;7.610;2023-02-14T07:27:14;0.90;79.30
10294;DHT22;5192;50.328;7.610;2023-02-14T07:29:42;0.90;79.40
10294;DHT22;5192;50.328;7.610;2023-02-14T07:32:09;1.00;79.70
10294;DHT22;5192;50.328;7.610;2023-02-14T07:34:37;1.10;80.00
10294;DHT22;5192;50.328;7.610;2023-02-14T07:37:04;1.20;80.20
10294;DHT22;5192;50.328;7.610;2023-02-14T07:39:32;1.20;80.50
10294;DHT22;5192;50.328;7.610;2023-02-14T07:42:00;1.30;80.80
10294;DHT22;5192;50.328;7.610;2023-02-14T07:44:26;1.40;81.10
10294;DHT22;5192;50.328;7.610;2023-02-14T07:46:53;1.40;81.30
10294;DHT22;5192;50.328;7.610;2023-02-14T07:49:21;1.50;81.60
10294;DHT22;5192;50.328;7.610;2023-02-14T07:51:49;1.50;81.60
10294;DHT22;5192;50.328;7.610;2023-02-14T07:54:16;1.50;81.70
10294;DHT22;5192;50.328;7.610;2023-02-14T07:56:42;1.50;81.80
10294;DHT22;5192;50.328;7.610;2023-02-14T07:59:11;1.60;81.90
10294;DHT22;5192;50.328;7.610;2023-02-14T08:01:38;1.60;81.90
10294;DHT22;5192;50.328;7.610;2023-02-14T08:04:07;1.60;81.80
10294;DHT22;5192;50.328;7.610;2023-02-14T08:06:37;1.60;81.70
10294;DHT22;5192;50.328;7.610;2023-02-14T08:09:05;1.70;81.90
10294;DHT22;5192;50.328;7.610;2023-02-14T08:11:32;1.70;81.70
10294;DHT22;5192;50.328;7.610;2023-02-14T08:14:18;1.70;81.50
10294;DHT22;5192;50.328;7.610;2023-02-14T08:16:46;1.70;81.00
10294;DHT22;5192;50.328;7.610;2023-02-14T08:19:11;1.70;80.80
10294;DHT22;5192;50.328;7.610;2023-02-14T08:21:37;1.80;80.80
10294;DHT22;5192;50.328;7.610;2023-02-14T08:24:04;1.80;80.50
10294;DHT22;5192;50.328;7.610;2023-02-14T08:26:31;1.80;79.70
10294;DHT22;5192;50.328;7.610;2023-02-14T08:29:02;1.80;79.20
10294;DHT22;5192;50.328;7.610;2023-02-14T08:31:30;1.80;78.50
10294;DHT22;5192;50.328;7.610;2023-02-14T08:33:57;1.80;78.00
10294;DHT22;5192;50.328;7.610;2023-02-14T08:36:25;1.80;76.80
10294;DHT22;5192;50.328;7.610;2023-02-14T08:38:52;1.80;76.50
10294;DHT22;5192;50.328;7.610;2023-02-14T08:41:18;1.70;74.70
10294;DHT22;5192;50.328;7.610;2023-02-14T08:43:46;1.70;74.30
10294;DHT22;5192;50.328;7.610;2023-02-14T08:46:13;1.70;74.20
10294;DHT22;5192;50.328;7.610;2023-02-14T08:48:44;1.60;73.30
10294;DHT22;5192;50.328;7.610;2023-02-14T08:51:13;1.50;72.60
10294;DHT22;5192;50.328;7.610;2023-02-14T08:53:40;1.60;73.30
10294;DHT22;5192;50.328;7.610;2023-02-14T08:56:13;1.60;72.60
10294;DHT22;5192;50.328;7.610;2023-02-14T08:58:40;1.90;73.00
10294;DHT22;5192;50.328;7.610;2023-02-14T09:01:15;1.80;72.20
10294;DHT22;5192;50.328;7.610;2023-02-14T09:03:42;2.00;72.30
10294;DHT22;5192;50.328;7.610;2023-02-14T09:06:12;2.00;71.30
10294;DHT22;5192;50.328;7.610;2023-02-14T09:08:42;2.10;68.80
10294;DHT22;5192;50.328;7.610;2023-02-14T09:11:10;2.10;68.80
10294;DHT22;5192;50.328;7.610;2023-02-14T09:13:38;2.20;68.40
10294;DHT22;5192;50.328;7.610;2023-02-14T09:16:07;2.40;67.90
10294;DHT22;5192;50.328;7.610;2023-02-14T09:18:37;2.50;67.00
10294;DHT22;5192;50.328;7.610;2023-02-14T09:21:10;2.60;66.60
10294;DHT22;5192;50.328;7.610;2023-02-14T09:23:37;2.70;65.70
10294;DHT22;5192;50.328;7.610;2023-02-14T09:26:08;2.60;61.90
10294;DHT22;5192;50.328;7.610;2023-02-14T09:28:37;2.50;58.00
10294;DHT22;5192;50.328;7.610;2023-02-14T09:31:23;2.60;58.30
10294;DHT22;5192;50.328;7.610;2023-02-14T09:33:51;2.70;58.60
10294;DHT22;5192;50.328;7.610;2023-02-14T09:36:37;2.70;57.20
10294;DHT22;5192;50.328;7.610;2023-02-14T09:39:04;2.90;57.10
10294;DHT22;5192;50.328;7.610;2023-02-14T09:44:56;2.90;51.40
10294;DHT22;5192;50.328;7.610;2023-02-14T09:53:37;2.80;51.30
10294;DHT22;5192;50.328;7.610;2023-02-14T09:59:13;2.70;50.50
10294;DHT22;5192;50.328;7.610;2023-02-14T10:02:17;2.60;51.90
10294;DHT22;5192;50.328;7.610;2023-02-14T10:05:26;2.60;58.00
10294;DHT22;5192;50.328;7.610;2023-02-14T10:11:20;2.90;54.30
10294;DHT22;5192;50.328;7.610;2023-02-14T10:14:16;3.10;51.10
10294;DHT22;5192;50.328;7.610;2023-02-14T10:19:43;3.00;50.50
10294;DHT22;5192;50.328;7.610;2023-02-14T10:22:30;2.90;51.90
10294;DHT22;5192;50.328;7.610;2023-02-14T10:25:02;3.00;50.90
10294;DHT22;5192;50.328;7.610;2023-02-14T10:27:50;3.00;52.00
10294;DHT22;5192;50.328;7.610;2023-02-14T10:30:20;3.10;52.30
10294;DHT22;5192;50.328;7.610;2023-02-14T10:33:15;3.10;52.10
10294;DHT22;5192;50.328;7.610;2023-02-14T10:36:07;3.10;52.80
10294;DHT22;5192;50.328;7.610;2023-02-14T10:41:56;3.10;55.00
10294;DHT22;5192;50.328;7.610;2023-02-14T10:48:24;3.10;54.00
10294;DHT22;5192;50.328;7.610;2023-02-14T10:51:12;3.20;53.10
10294;DHT22;5192;50.328;7.610;2023-02-14T11:00:05;3.40;53.50
10294;DHT22;5192;50.328;7.610;2023-02-14T11:02:40;3.50;51.60
10294;DHT22;5192;50.328;7.610;2023-02-14T11:05:23;3.80;50.00
10294;DHT22;5192;50.328;7.610;2023-02-14T11:08:01;4.00;47.10
10294;DHT22;5192;50.328;7.610;2023-02-14T11:10:34;4.00;44.50
10294;DHT22;5192;50.328;7.610;2023-02-14T11:13:06;4.10;41.30
10294;DHT22;5192;50.328;7.610;2023-02-14T11:15:53;4.00;42.90
10294;DHT22;5192;50.328;7.610;2023-02-14T11:18:24;4.20;41.80
10294;DHT22;5192;50.328;7.610;2023-02-14T11:21:15;4.00;40.00
10294;DHT22;5192;50.328;7.610;2023-02-14T11:23:51;3.90;43.80
10294;DHT22;5192;50.328;7.610;2023-02-14T11:26:35;4.00;42.90
10294;DHT22;5192;50.328;7.610;2023-02-14T11:29:10;4.00;42.90
10294;DHT22;5192;50.328;7.610;2023-02-14T11:31:39;4.00;40.90
10294;DHT22;5192;50.328;7.610;2023-02-14T11:36:55;4.30;37.70
10294;DHT22;5192;50.328;7.610;2023-02-14T11:39:37;4.60;36.70
10294;DHT22;5192;50.328;7.610;2023-02-14T11:42:05;4.50;37.10
10294;DHT22;5192;50.328;7.610;2023-02-14T11:44:32;4.80;34.10
10294;DHT22;5192;50.328;7.610;2023-02-14T11:47:28;4.90;31.90
10294;DHT22;5192;50.328;7.610;2023-02-14T11:50:03;5.20;29.10
10294;DHT22;5192;50.328;7.610;2023-02-14T11:52:47;5.70;27.30
10294;DHT22;5192;50.328;7.610;2023-02-14T11:55:31;6.00;21.70
10294;DHT22;5192;50.328;7.610;2023-02-14T11:58:06;6.40;18.40
10294;DHT22;5192;50.328;7.610;2023-02-14T12:00:54;6.80;17.10
10294;DHT22;5192;50.328;7.610;2023-02-14T12:03:19;7.50;12.70
10294;DHT22;5192;50.328;7.610;2023-02-14T12:06:06;7.80;10.20
10294;DHT22;5192;50.328;7.610;2023-02-14T12:08:34;7.40;9.80
10294;DHT22;5192;50.328;7.610;2023-02-14T12:11:22;8.00;8.70
10294;DHT22;5192;50.328;7.610;2023-02-14T12:13:57;8.20;2.90
10294;DHT22;5192;50.328;7.610;2023-02-14T12:16:34;8.20;4.80
10294;DHT22;5192;50.328;7.610;2023-02-14T12:19:31;8.00;7.10
10294;DHT22;5192;50.328;7.610;2023-02-14T12:22:03;7.80;5.80
10294;DHT22;5192;50.328;7.610;2023-02-14T12:28:05;8.40;2.70
10294;DHT22;5192;50.328;7.610;2023-02-14T12:30:34;8.00;4.20
10294;DHT22;5192;50.328;7.610;2023-02-14T12:33:00;8.20;3.80
10294;DHT22;5192;50.328;7.610;2023-02-14T12:38:53;8.30;2.60
10294;DHT22;5192;50.328;7.610;2023-02-14T12:44:53;9.40;1.00
10294;DHT22;5192;50.328;7.610;2023-02-14T12:51:09;9.50;1.00
10294;DHT22;5192;50.328;7.610;2023-02-14T13:00:15;10.70;1.00
10294;DHT22;5192;50.328;7.610;2023-02-14T13:09:30;11.10;1.00
10294;DHT22;5192;50.328;7.610;2023-02-14T13:20:52;12.10;1.00
10294;DHT22;5192;50.328;7.610;2023-02-14T13:23:32;12.40;1.00
10294;DHT22;5192;50.328;7.610;2023-02-14T13:26:32;12.20;1.00
10294;DHT22;5192;50.328;7.610;2023-02-14T13:29:10;12.90;1.00
10294;DHT22;5192;50.328;7.610;2023-02-14T13:31:40;13.20;1.00
10294;DHT22;5192;50.328;7.610;2023-02-14T13:36:47;13.90;1.00
10294;DHT22;5192;50.328;7.610;2023-02-14T13:39:28;13.90;1.00
10294;DHT22;5192;50.328;7.610;2023-02-14T13:41:56;13.70;1.00
10294;DHT22;5192;50.328;7.610;2023-02-14T13:44:46;12.00;1.00
10294;DHT22;5192;50.328;7.610;2023-02-14T13:47:25;12.70;1.00
10294;DHT22;5192;50.328;7.610;2023-02-14T13:49:59;13.00;1.00
10294;DHT22;5192;50.328;7.610;2023-02-14T13:52:45;12.60;1.00
10294;DHT22;5192;50.328;7.610;2023-02-14T13:55:19;13.10;1.00
10294;DHT22;5192;50.328;7.610;2023-02-14T13:58:27;13.70;1.00
10294;DHT22;5192;50.328;7.610;2023-02-14T14:00:57;12.90;1.00
10294;DHT22;5192;50.328;7.610;2023-02-14T14:06:17;13.30;1.00
10294;DHT22;5192;50.328;7.610;2023-02-14T14:08:49;12.60;1.00
10294;DHT22;5192;50.328;7.610;2023-02-14T14:14:29;11.80;1.00
10294;DHT22;5192;50.328;7.610;2023-02-14T14:17:01;11.40;1.00
10294;DHT22;5192;50.328;7.610;2023-02-14T14:19:50;10.00;1.00
10294;DHT22;5192;50.328;7.610;2023-02-14T14:22:19;10.40;1.00
10294;DHT22;5192;50.328;7.610;2023-02-14T14:25:05;10.50;1.00
10294;DHT22;5192;50.328;7.610;2023-02-14T14:27:40;10.90;1.00
10294;DHT22;5192;50.328;7.610;2023-02-14T14:30:41;10.40;1.00
10294;DHT22;5192;50.328;7.610;2023-02-14T14:33:28;10.20;1.00
10294;DHT22;5192;50.328;7.610;2023-02-14T14:36:02;10.00;1.00
10294;DHT22;5192;50.328;7.610;2023-02-14T14:38:31;9.30;1.00
10294;DHT22;5192;50.328;7.610;2023-02-14T14:40:59;9.40;1.00
10294;DHT22;5192;50.328;7.610;2023-02-14T14:43:38;9.10;1.00
10294;DHT22;5192;50.328;7.610;2023-02-14T14:46:09;9.10;1.00
10294;DHT22;5192;50.328;7.610;2023-02-14T14:48:54;9.20;1.00
10294;DHT22;5192;50.328;7.610;2023-02-14T14:57:01;8.70;1.00
10294;DHT22;5192;50.328;7.610;2023-02-14T14:59:46;8.70;1.00
10294;DHT22;5192;50.328;7.610;2023-02-14T15:02:25;8.60;1.00
10294;DHT22;5192;50.328;7.610;2023-02-14T15:04:51;8.70;1.00
10294;DHT22;5192;50.328;7.610;2023-02-14T15:07:27;8.50;1.00
10294;DHT22;5192;50.328;7.610;2023-02-14T15:09:58;8.40;1.00
10294;DHT22;5192;50.328;7.610;2023-02-14T15:12:26;8.00;1.00
10294;DHT22;5192;50.328;7.610;2023-02-14T15:15:15;7.90;1.30
10294;DHT22;5192;50.328;7.610;2023-02-14T15:17:42;7.60;3.00
10294;DHT22;5192;50.328;7.610;2023-02-14T15:20:21;7.20;7.70
10294;DHT22;5192;50.328;7.610;2023-02-14T15:22:49;7.30;9.60
10294;DHT22;5192;50.328;7.610;2023-02-14T15:25:27;7.30;8.40
10294;DHT22;5192;50.328;7.610;2023-02-14T15:27:55;7.00;10.70
10294;DHT22;5192;50.328;7.610;2023-02-14T15:30:29;6.90;11.60
10294;DHT22;5192;50.328;7.610;2023-02-14T15:33:04;6.90;12.50
10294;DHT22;5192;50.328;7.610;2023-02-14T15:35:33;6.90;12.10
10294;DHT22;5192;50.328;7.610;2023-02-14T15:38:03;6.70;14.90
10294;DHT22;5192;50.328;7.610;2023-02-14T15:40:33;6.50;15.50
10294;DHT22;5192;50.328;7.610;2023-02-14T15:46:36;6.50;16.20
10294;DHT22;5192;50.328;7.610;2023-02-14T15:49:15;6.20;18.90
10294;DHT22;5192;50.328;7.610;2023-02-14T15:51:56;6.10;20.10
10294;DHT22;5192;50.328;7.610;2023-02-14T15:54:36;6.00;21.80
10294;DHT22;5192;50.328;7.610;2023-02-14T15:57:03;5.90;23.80
10294;DHT22;5192;50.328;7.610;2023-02-14T15:59:33;5.90;23.50
10294;DHT22;5192;50.328;7.610;2023-02-14T16:02:31;5.70;24.70
10294;DHT22;5192;50.328;7.610;2023-02-14T16:05:22;5.50;26.80
10294;DHT22;5192;50.328;7.610;2023-02-14T16:11:58;5.50;26.90
10294;DHT22;5192;50.328;7.610;2023-02-14T16:13:56;5.20;30.10
10294;DHT22;5192;50.328;7.610;2023-02-14T16:16:22;5.20;29.60
10294;DHT22;5192;50.328;7.610;2023-02-14T16:18:51;5.30;30.30
10294;DHT22;5192;50.328;7.610;2023-02-14T16:21:28;4.90;33.30
10294;DHT22;5192;50.328;7.610;2023-02-14T16:24:15;4.80;35.40
10294;DHT22;5192;50.328;7.610;2023-02-14T16:26:43;4.70;36.60
10294;DHT22;5192;50.328;7.610;2023-02-14T16:29:18;4.60;38.00
10294;DHT22;5192;50.328;7.610;2023-02-14T16:31:53;4.40;39.10
10294;DHT22;5192;50.328;7.610;2023-02-14T16:34:21;4.20;42.90
10294;DHT22;5192;50.328;7.610;2023-02-14T16:36:49;4.00;46.20
10294;DHT22;5192;50.328;7.610;2023-02-14T16:39:25;3.80;50.50
10294;DHT22;5192;50.328;7.610;2023-02-14T16:41:53;3.70;51.40
10294;DHT22;5192;50.328;7.610;2023-02-14T16:44:21;3.70;52.20
10294;DHT22;5192;50.328;7.610;2023-02-14T16:46:50;3.60;53.10
10294;DHT22;5192;50.328;7.610;2023-02-14T16:49:16;3.50;54.20
10294;DHT22;5192;50.328;7.610;2023-02-14T16:51:45;3.40;56.10
10294;DHT22;5192;50.328;7.610;2023-02-14T16:54:19;3.40;57.00
10294;DHT22;5192;50.328;7.610;2023-02-14T16:57:04;3.30;57.20
10294;DHT22;5192;50.328;7.610;2023-02-14T16:59:30;3.20;58.50
10294;DHT22;5192;50.328;7.610;2023-02-14T17:01:57;3.10;59.90
10294;DHT22;5192;50.328;7.610;2023-02-14T17:04:23;3.00;60.10
10294;DHT22;5192;50.328;7.610;2023-02-14T17:06:53;3.00;60.10
10294;DHT22;5192;50.328;7.610;2023-02-14T17:09:28;2.80;59.20
10294;DHT22;5192;50.328;7.610;2023-02-14T17:12:02;2.80;58.70
10294;DHT22;5192;50.328;7.610;2023-02-14T17:14:35;2.70;59.20
10294;DHT22;5192;50.328;7.610;2023-02-14T17:17:01;2.60;59.00
10294;DHT22;5192;50.328;7.610;2023-02-14T17:19:27;2.60;60.30
10294;DHT22;5192;50.328;7.610;2023-02-14T17:22:05;2.60;60.40
10294;DHT22;5192;50.328;7.610;2023-02-14T17:24:31;2.50;60.00
10294;DHT22;5192;50.328;7.610;2023-02-14T17:26:57;2.40;60.50
10294;DHT22;5192;50.328;7.610;2023-02-14T17:29:26;2.40;60.50
10294;DHT22;5192;50.328;7.610;2023-02-14T17:31:52;2.30;60.30
10294;DHT22;5192;50.328;7.610;2023-02-14T17:34:19;2.20;61.70
10294;DHT22;5192;50.328;7.610;2023-02-14T17:36:46;2.10;62.40
10294;DHT22;5192;50.328;7.610;2023-02-14T17:39:16;2.30;62.60
10294;DHT22;5192;50.328;7.610;2023-02-14T17:41:42;2.10;62.60
10294;DHT22;5192;50.328;7.610;2023-02-14T17:44:10;2.10;63.30
10294;DHT22;5192;50.328;7.610;2023-02-14T17:46:39;2.00;63.50
10294;DHT22;5192;50.328;7.610;2023-02-14T17:49:06;2.00;63.80
10294;DHT22;5192;50.328;7.610;2023-02-14T17:51:36;2.00;63.40
10294;DHT22;5192;50.328;7.610;2023-02-14T17:54:04;2.00;63.90
10294;DHT22;5192;50.328;7.610;2023-02-14T17:56:31;1.90;63.50
10294;DHT22;5192;50.328;7.610;2023-02-14T17:58:58;2.00;64.20
10294;DHT22;5192;50.328;7.610;2023-02-14T18:01:28;1.90;63.90
10294;DHT22;5192;50.328;7.610;2023-02-14T18:04:15;2.00;64.60
10294;DHT22;5192;50.328;7.610;2023-02-14T18:06:42;1.90;65.00
10294;DHT22;5192;50.328;7.610;2023-02-14T18:09:09;1.80;65.30
10294;DHT22;5192;50.328;7.610;2023-02-14T18:11:38;1.80;65.60
10294;DHT22;5192;50.328;7.610;2023-02-14T18:14:06;1.80;65.80
10294;DHT22;5192;50.328;7.610;2023-02-14T18:16:38;1.80;65.60
10294;DHT22;5192;50.328;7.610;2023-02-14T18:19:06;1.80;65.10
10294;DHT22;5192;50.328;7.610;2023-02-14T18:21:37;1.70;66.10
10294;DHT22;5192;50.328;7.610;2023-02-14T18:24:06;1.70;66.50
10294;DHT22;5192;50.328;7.610;2023-02-14T18:26:35;1.60;66.30
10294;DHT22;5192;50.328;7.610;2023-02-14T18:29:00;1.60;66.80
10294;DHT22;5192;50.328;7.610;2023-02-14T18:31:37;1.60;66.50
10294;DHT22;5192;50.328;7.610;2023-02-14T18:34:04;1.60;67.10
10294;DHT22;5192;50.328;7.610;2023-02-14T18:36:32;1.50;67.20
10294;DHT22;5192;50.328;7.610;2023-02-14T18:38:59;1.50;67.30
10294;DHT22;5192;50.328;7.610;2023-02-14T18:41:26;1.50;67.40
10294;DHT22;5192;50.328;7.610;2023-02-14T18:43:54;1.40;67.70
10294;DHT22;5192;50.328;7.610;2023-02-14T18:46:28;1.50;67.80